createdAt,value
2018-12-22T00:00:34.337Z,7.10
2018-12-22T00:01:38.469Z,8.83
2018-12-22T00:02:42.601Z,7.08
2018-12-22T00:03:46.753Z,7.40
2018-12-22T00:04:50.787Z,8.13
2018-12-22T00:05:55.018Z,7.47
2018-12-22T00:06:59.278Z,7.15
2018-12-22T00:08:03.402Z,7.35
2018-12-22T00:09:07.480Z,7.42
2018-12-22T00:10:11.485Z,7.55
2018-12-22T00:11:15.534Z,8.23
2018-12-22T00:12:19.563Z,7.15
2018-12-22T00:13:23.549Z,5.95
2018-12-22T00:14:27.673Z,7.53
2018-12-22T00:15:32.162Z,6.22
2018-12-22T00:16:36.264Z,6.72
2018-12-22T00:17:40.277Z,7.80
2018-12-22T00:18:44.388Z,7.47
2018-12-22T00:19:48.406Z,6.53
2018-12-22T00:20:52.455Z,8.80
2018-12-22T00:21:56.482Z,9.03
2018-12-22T00:23:00.658Z,7.50
2018-12-22T00:24:04.688Z,8.08
2018-12-22T00:25:08.717Z,7.15
2018-12-22T00:26:12.786Z,6.75
2018-12-22T00:27:17.527Z,7.80
2018-12-22T00:28:22.257Z,7.30
2018-12-22T00:29:26.667Z,7.00
2018-12-22T00:30:30.723Z,9.60
2018-12-22T00:31:34.856Z,7.28
2018-12-22T00:32:38.920Z,7.75
2018-12-22T00:33:42.939Z,6.55
2018-12-22T00:34:51.788Z,7.50
2018-12-22T00:35:55.947Z,7.75
2018-12-22T00:37:00.031Z,7.03
2018-12-22T00:38:04.058Z,7.35
2018-12-22T00:39:08.235Z,6.55
2018-12-22T00:40:12.288Z,7.08
2018-12-22T00:41:16.368Z,6.50
2018-12-22T00:42:20.407Z,8.43
2018-12-22T00:43:24.527Z,7.90
2018-12-22T00:44:28.649Z,7.67
2018-12-22T00:45:32.746Z,7.53
2018-12-22T00:46:36.859Z,7.53
2018-12-22T00:47:40.876Z,6.85
2018-12-22T00:48:44.987Z,7.83
2018-12-22T00:49:49.009Z,7.53
2018-12-22T00:50:53.203Z,6.60
2018-12-22T00:51:57.220Z,6.70
2018-12-22T00:53:01.273Z,7.37
2018-12-22T00:54:05.365Z,7.30
2018-12-22T00:55:09.521Z,8.73
2018-12-22T00:56:13.692Z,7.58
2018-12-22T00:57:17.760Z,6.30
2018-12-22T00:58:21.761Z,9.08
2018-12-22T00:59:25.819Z,7.03
2018-12-22T01:00:29.825Z,7.33
2018-12-22T01:01:33.875Z,8.68
2018-12-22T01:02:38.009Z,8.25
2018-12-22T01:03:42.021Z,8.73
2018-12-22T01:04:46.123Z,8.75
2018-12-22T01:05:50.159Z,7.03
2018-12-22T01:06:54.324Z,7.92
2018-12-22T01:07:58.787Z,8.23
2018-12-22T01:09:03.998Z,8.70
2018-12-22T01:10:08.807Z,8.43
2018-12-22T01:11:12.897Z,9.55
2018-12-22T01:12:16.928Z,8.83
2018-12-22T01:13:21.034Z,7.75
2018-12-22T01:14:25.091Z,8.78
2018-12-22T01:15:29.186Z,6.95
2018-12-22T01:16:33.175Z,6.78
2018-12-22T01:17:37.206Z,7.53
2018-12-22T01:18:41.220Z,9.15
2018-12-22T01:19:45.298Z,7.85
2018-12-22T01:20:49.475Z,6.83
2018-12-22T01:21:53.517Z,7.40
2018-12-22T01:22:57.556Z,7.37
2018-12-22T01:24:01.559Z,9.50
2018-12-22T01:25:06.316Z,8.68
2018-12-22T01:26:10.467Z,8.68
2018-12-22T01:27:14.522Z,7.78
2018-12-22T01:28:18.537Z,8.08
2018-12-22T01:29:22.594Z,8.93
2018-12-22T01:30:26.581Z,7.47
2018-12-22T01:31:30.775Z,7.08
2018-12-22T01:32:34.858Z,6.72
2018-12-22T01:33:38.968Z,7.70
2018-12-22T01:34:43.001Z,7.10
2018-12-22T01:35:47.010Z,7.45
2018-12-22T01:36:51.157Z,7.75
2018-12-22T01:37:55.193Z,6.70
2018-12-22T01:38:59.272Z,7.75
2018-12-22T01:40:03.454Z,7.22
2018-12-22T01:41:07.735Z,7.58
2018-12-22T01:42:11.921Z,6.42
2018-12-22T01:43:15.921Z,7.53
2018-12-22T01:44:19.937Z,8.98
2018-12-22T01:45:23.995Z,7.33
2018-12-22T01:46:28.019Z,8.68
2018-12-22T01:47:32.090Z,7.65
2018-12-22T01:48:36.129Z,7.17
2018-12-22T01:49:40.217Z,7.85
2018-12-22T01:50:44.321Z,8.10
2018-12-22T01:51:48.781Z,7.47
2018-12-22T01:52:52.858Z,7.72
2018-12-22T01:53:57.035Z,7.92
2018-12-22T01:55:01.008Z,7.80
2018-12-22T01:56:05.243Z,7.33
2018-12-22T01:57:09.242Z,7.85
2018-12-22T01:58:13.297Z,7.40
2018-12-22T01:59:17.305Z,7.45
2018-12-22T02:00:21.693Z,8.05
2018-12-22T02:01:25.765Z,7.25
2018-12-22T02:02:29.890Z,7.95
2018-12-22T02:03:34.014Z,9.15
2018-12-22T02:04:38.028Z,7.70
2018-12-22T02:05:42.025Z,7.45
2018-12-22T02:06:46.103Z,7.65
2018-12-22T02:07:50.129Z,5.95
2018-12-22T02:08:54.317Z,6.92
2018-12-22T02:09:58.362Z,6.47
2018-12-22T02:11:02.345Z,8.45
2018-12-22T02:12:06.374Z,8.05
2018-12-22T02:13:10.393Z,7.37
2018-12-22T02:14:14.490Z,7.50
2018-12-22T02:15:18.519Z,8.53
2018-12-22T02:16:22.655Z,8.75
2018-12-22T02:17:26.645Z,6.80
2018-12-22T02:18:30.654Z,8.30
2018-12-22T02:19:38.035Z,7.65
2018-12-22T02:20:42.226Z,7.37
2018-12-22T02:21:46.275Z,7.40
2018-12-22T02:22:50.290Z,7.28
2018-12-22T02:23:54.364Z,7.50
2018-12-22T02:24:58.405Z,10.10
2018-12-22T02:26:02.434Z,6.80
2018-12-22T02:27:06.523Z,6.83
2018-12-22T02:28:10.543Z,8.65
2018-12-22T02:29:15.569Z,8.05
2018-12-22T02:30:19.612Z,6.83
2018-12-22T02:31:23.623Z,6.97
2018-12-22T02:32:27.734Z,7.83
2018-12-22T02:33:31.799Z,8.68
2018-12-22T02:34:35.949Z,8.08
2018-12-22T02:35:40.055Z,6.40
2018-12-22T02:36:45.376Z,5.85
2018-12-22T02:37:49.458Z,7.95
2018-12-22T02:38:53.493Z,6.90
2018-12-22T02:39:57.625Z,6.45
2018-12-22T02:41:01.708Z,7.95
2018-12-22T02:42:05.825Z,6.15
2018-12-22T02:43:09.897Z,6.10
2018-12-22T02:44:13.902Z,6.33
2018-12-22T02:45:18.015Z,7.85
2018-12-22T02:46:22.176Z,7.87
2018-12-22T02:47:26.403Z,7.37
2018-12-22T02:48:30.474Z,7.22
2018-12-22T02:49:34.728Z,6.78
2018-12-22T02:50:38.808Z,6.20
2018-12-22T02:51:43.533Z,5.97
2018-12-22T02:52:47.531Z,6.10
2018-12-22T02:53:51.635Z,6.65
2018-12-22T02:54:55.889Z,8.18
2018-12-22T02:55:59.947Z,5.03
2018-12-22T02:57:04.137Z,6.85
2018-12-22T02:58:08.290Z,5.22
2018-12-22T02:59:12.312Z,5.70
2018-12-22T03:00:16.501Z,6.37
2018-12-22T03:01:20.569Z,7.53
2018-12-22T03:02:24.730Z,6.60
2018-12-22T03:03:28.861Z,5.58
2018-12-22T03:04:32.869Z,6.20
2018-12-22T03:05:36.988Z,4.83
2018-12-22T03:06:41.096Z,6.50
2018-12-22T03:07:45.307Z,7.00
2018-12-22T03:08:49.396Z,6.12
2018-12-22T03:09:53.889Z,5.60
2018-12-22T03:10:57.914Z,5.53
2018-12-22T03:12:02.094Z,6.72
2018-12-22T03:13:06.146Z,8.23
2018-12-22T03:14:10.243Z,7.22
2018-12-22T03:15:14.372Z,5.08
2018-12-22T03:16:18.445Z,5.08
2018-12-22T03:17:22.512Z,5.83
2018-12-22T03:18:26.543Z,6.37
2018-12-22T03:19:30.549Z,6.67
2018-12-22T03:20:34.648Z,6.42
2018-12-22T03:21:38.678Z,6.05
2018-12-22T03:22:42.708Z,6.42
2018-12-22T03:23:46.757Z,6.33
2018-12-22T03:24:50.775Z,5.20
2018-12-22T03:25:54.831Z,7.75
2018-12-22T03:26:58.894Z,5.53
2018-12-22T03:28:03.106Z,8.70
2018-12-22T03:29:15.260Z,6.25
2018-12-22T03:30:13.388Z,6.15
2018-12-22T03:31:17.567Z,6.90
2018-12-22T03:32:21.735Z,6.05
2018-12-22T03:33:25.929Z,6.37
2018-12-22T03:34:29.934Z,6.70
2018-12-22T03:35:34.005Z,5.55
2018-12-22T03:36:38.202Z,5.25
2018-12-22T03:37:42.239Z,6.17
2018-12-22T03:38:46.418Z,6.22
2018-12-22T03:39:50.596Z,6.58
2018-12-22T03:40:54.666Z,5.45
2018-12-22T03:41:58.758Z,6.10
2018-12-22T03:43:02.830Z,5.70
2018-12-22T03:44:06.986Z,5.70
2018-12-22T03:45:11.102Z,6.83
2018-12-22T03:46:15.150Z,5.22
2018-12-22T03:47:19.144Z,6.47
2018-12-22T03:48:23.230Z,5.37
2018-12-22T03:49:27.445Z,5.37
2018-12-22T03:50:31.587Z,6.33
2018-12-22T03:51:35.708Z,4.58
2018-12-22T03:52:39.756Z,5.40
2018-12-22T03:53:43.779Z,5.75
2018-12-22T03:54:48.049Z,5.55
2018-12-22T03:55:52.301Z,3.83
2018-12-22T03:56:56.461Z,3.67
2018-12-22T03:58:00.508Z,3.67
2018-12-22T03:59:04.661Z,4.17
2018-12-22T04:00:08.847Z,4.55
2018-12-22T04:01:12.909Z,4.08
2018-12-22T04:02:17.069Z,3.40
2018-12-22T04:03:21.113Z,3.95
2018-12-22T04:04:25.140Z,2.80
2018-12-22T04:05:29.190Z,2.90
2018-12-22T04:06:33.226Z,3.62
2018-12-22T04:07:37.491Z,4.72
2018-12-22T04:08:41.595Z,4.10
2018-12-22T04:09:45.607Z,3.47
2018-12-22T04:10:49.935Z,3.90
2018-12-22T04:11:54.001Z,3.40
2018-12-22T04:12:58.066Z,2.87
2018-12-22T04:14:02.132Z,3.20
2018-12-22T04:15:06.615Z,3.85
2018-12-22T04:16:10.718Z,4.15
2018-12-22T04:17:14.850Z,3.65
2018-12-22T04:18:18.960Z,2.70
2018-12-22T04:19:23.268Z,3.17
2018-12-22T04:20:27.427Z,3.40
2018-12-22T04:21:31.502Z,3.10
2018-12-22T04:22:35.642Z,3.70
2018-12-22T04:23:39.687Z,3.15
2018-12-22T04:24:43.846Z,2.33
2018-12-22T04:25:48.017Z,3.40
2018-12-22T04:26:52.262Z,3.00
2018-12-22T04:27:56.339Z,3.17
2018-12-22T04:29:00.397Z,2.72
2018-12-22T04:30:04.828Z,2.85
2018-12-22T04:31:08.825Z,5.03
2018-12-22T04:32:12.829Z,3.30
2018-12-22T04:33:16.913Z,3.17
2018-12-22T04:34:20.944Z,4.17
2018-12-22T04:35:25.023Z,2.67
2018-12-22T04:36:29.254Z,2.50
2018-12-22T04:37:33.349Z,1.98
2018-12-22T04:38:37.445Z,2.67
2018-12-22T04:39:41.457Z,2.45
2018-12-22T04:40:45.489Z,2.45
2018-12-22T04:41:49.496Z,2.52
2018-12-22T04:42:53.522Z,3.75
2018-12-22T04:43:57.531Z,2.90
2018-12-22T04:45:01.667Z,3.58
2018-12-22T04:46:05.813Z,2.50
2018-12-22T04:47:09.848Z,2.42
2018-12-22T04:48:13.962Z,2.70
2018-12-22T04:49:18.059Z,3.40
2018-12-22T04:50:22.041Z,2.30
2018-12-22T04:51:26.132Z,2.50
2018-12-22T04:52:30.191Z,2.60
2018-12-22T04:53:34.226Z,2.45
2018-12-22T04:54:38.279Z,2.50
2018-12-22T04:55:42.353Z,2.10
2018-12-22T04:56:46.386Z,3.20
2018-12-22T04:57:50.426Z,2.55
2018-12-22T04:58:54.429Z,2.70
2018-12-22T04:59:58.535Z,2.10
2018-12-22T05:01:02.564Z,2.47
2018-12-22T05:02:06.589Z,2.85
2018-12-22T05:03:10.618Z,2.55
2018-12-22T05:04:14.683Z,2.50
2018-12-22T05:05:18.728Z,2.83
2018-12-22T05:06:22.732Z,2.65
2018-12-22T05:07:26.891Z,2.22
2018-12-22T05:08:30.908Z,2.42
2018-12-22T05:09:34.981Z,2.15
2018-12-22T05:10:38.982Z,2.65
2018-12-22T05:11:43.318Z,2.40
2018-12-22T05:12:47.932Z,1.70
2018-12-22T05:13:52.000Z,2.58
2018-12-22T05:14:56.016Z,2.15
2018-12-22T05:16:00.022Z,2.40
2018-12-22T05:17:04.083Z,2.85
2018-12-22T05:18:08.109Z,2.65
2018-12-22T05:19:12.168Z,3.22
2018-12-22T05:20:16.220Z,2.20
2018-12-22T05:21:20.242Z,2.35
2018-12-22T05:22:24.244Z,2.85
2018-12-22T05:23:28.441Z,2.75
2018-12-22T05:24:32.432Z,1.98
2018-12-22T05:25:36.674Z,2.70
2018-12-22T05:26:40.726Z,2.20
2018-12-22T05:27:44.737Z,2.47
2018-12-22T05:28:48.798Z,2.60
2018-12-22T05:29:52.880Z,2.67
2018-12-22T05:30:56.962Z,2.10
2018-12-22T05:32:00.986Z,2.17
2018-12-22T05:33:04.989Z,2.50
2018-12-22T05:34:09.173Z,2.60
2018-12-22T05:35:13.307Z,5.50
2018-12-22T05:36:17.458Z,3.10
2018-12-22T05:37:21.566Z,3.10
2018-12-22T05:38:25.680Z,2.95
2018-12-22T05:39:29.714Z,2.70
2018-12-22T05:40:33.722Z,3.92
2018-12-22T05:41:37.738Z,2.45
2018-12-22T05:42:41.775Z,3.15
2018-12-22T05:43:45.900Z,2.42
2018-12-22T05:44:50.113Z,2.83
2018-12-22T05:45:54.173Z,3.50
2018-12-22T05:46:58.197Z,3.60
2018-12-22T05:48:02.362Z,3.08
2018-12-22T05:49:06.381Z,3.15
2018-12-22T05:50:10.528Z,3.40
2018-12-22T05:51:14.607Z,3.15
2018-12-22T05:52:18.721Z,3.15
2018-12-22T05:53:22.891Z,3.58
2018-12-22T05:54:26.917Z,3.00
2018-12-22T05:55:30.950Z,3.00
2018-12-22T05:56:34.966Z,2.83
2018-12-22T05:57:39.007Z,2.00
2018-12-22T05:58:43.123Z,1.95
2018-12-22T05:59:47.224Z,2.98
2018-12-22T06:00:51.360Z,2.55
2018-12-22T06:01:55.421Z,1.80
2018-12-22T06:02:59.477Z,1.70
2018-12-22T06:04:03.492Z,1.67
2018-12-22T06:05:09.039Z,1.90
2018-12-22T06:06:13.165Z,1.40
2018-12-22T06:07:17.313Z,1.50
2018-12-22T06:08:21.490Z,1.45
2018-12-22T06:09:25.565Z,1.12
2018-12-22T06:10:29.708Z,1.52
2018-12-22T06:11:33.806Z,1.40
2018-12-22T06:12:38.100Z,1.10
2018-12-22T06:13:42.177Z,1.52
2018-12-22T06:14:46.243Z,1.20
2018-12-22T06:15:50.391Z,1.22
2018-12-22T06:16:54.416Z,0.93
2018-12-22T06:17:58.441Z,1.00
2018-12-22T06:19:02.450Z,1.10
2018-12-22T06:20:08.731Z,1.10
2018-12-22T06:21:12.748Z,1.05
2018-12-22T06:22:16.747Z,1.00
2018-12-22T06:23:20.779Z,1.00
2018-12-22T06:24:24.812Z,1.10
2018-12-22T06:25:28.883Z,1.20
2018-12-22T06:26:32.907Z,1.10
2018-12-22T06:27:36.957Z,1.05
2018-12-22T06:28:40.978Z,1.12
2018-12-22T06:29:45.002Z,0.88
2018-12-22T06:30:49.071Z,1.10
2018-12-22T06:31:53.406Z,1.10
2018-12-22T06:32:57.490Z,1.02
2018-12-22T06:34:01.507Z,1.00
2018-12-22T06:35:05.818Z,1.20
2018-12-22T06:36:09.803Z,1.20
2018-12-22T06:37:13.830Z,0.80
2018-12-22T06:38:17.941Z,1.00
2018-12-22T06:39:22.097Z,1.15
2018-12-22T06:40:26.153Z,1.12
2018-12-22T06:41:30.334Z,1.05
2018-12-22T06:42:34.533Z,1.30
2018-12-22T06:43:38.573Z,1.35
2018-12-22T06:44:42.666Z,1.20
2018-12-22T06:45:46.741Z,1.35
2018-12-22T06:46:50.833Z,1.60
2018-12-22T06:47:54.850Z,1.17
2018-12-22T06:48:58.946Z,1.30
2018-12-22T06:50:03.192Z,1.70
2018-12-22T06:51:07.247Z,1.40
2018-12-22T06:52:11.363Z,2.27
2018-12-22T06:53:15.369Z,1.50
2018-12-22T06:54:19.385Z,1.30
2018-12-22T06:55:23.413Z,1.35
2018-12-22T06:56:27.562Z,1.45
2018-12-22T06:57:31.582Z,1.30
2018-12-22T06:58:35.679Z,1.27
2018-12-22T06:59:39.682Z,2.40
2018-12-22T07:00:43.899Z,2.17
2018-12-22T07:01:48.254Z,1.40
2018-12-22T07:02:52.306Z,1.70
2018-12-22T07:03:56.315Z,1.35
2018-12-22T07:05:02.114Z,1.60
2018-12-22T07:06:06.514Z,1.55
2018-12-22T07:07:10.618Z,2.00
2018-12-22T07:08:14.748Z,1.70
2018-12-22T07:09:18.749Z,1.42
2018-12-22T07:10:22.760Z,1.20
2018-12-22T07:11:26.842Z,1.60
2018-12-22T07:12:30.929Z,1.40
2018-12-22T07:13:35.322Z,1.75
2018-12-22T07:14:39.355Z,1.77
2018-12-22T07:15:43.413Z,1.42
2018-12-22T07:16:47.593Z,1.30
2018-12-22T07:17:51.688Z,2.40
2018-12-22T07:18:55.694Z,1.30
2018-12-22T07:19:59.889Z,1.50
2018-12-22T07:21:03.885Z,2.00
2018-12-22T07:22:07.987Z,2.00
2018-12-22T07:23:11.999Z,2.87
2018-12-22T07:24:16.063Z,1.80
2018-12-22T07:25:20.120Z,1.80
2018-12-22T07:26:24.137Z,1.65
2018-12-22T07:27:28.255Z,3.00
2018-12-22T07:28:32.333Z,2.42
2018-12-22T07:29:36.376Z,1.80
2018-12-22T07:30:40.469Z,1.80
2018-12-22T07:31:44.518Z,1.87
2018-12-22T07:32:56.697Z,1.70
2018-12-22T07:33:54.498Z,1.80
2018-12-22T07:34:58.580Z,1.72
2018-12-22T07:36:03.660Z,1.55
2018-12-22T07:37:07.668Z,1.82
2018-12-22T07:38:11.680Z,1.80
2018-12-22T07:39:16.171Z,2.10
2018-12-22T07:40:20.449Z,2.05
2018-12-22T07:41:24.502Z,3.35
2018-12-22T07:42:28.511Z,1.95
2018-12-22T07:43:32.547Z,1.90
2018-12-22T07:44:36.641Z,2.20
2018-12-22T07:45:40.701Z,2.27
2018-12-22T07:46:44.711Z,1.90
2018-12-22T07:47:48.777Z,2.70
2018-12-22T07:48:52.884Z,2.35
2018-12-22T07:49:56.917Z,3.22
2018-12-22T07:51:01.190Z,3.25
2018-12-22T07:52:05.217Z,2.55
2018-12-22T07:53:09.371Z,2.98
2018-12-22T07:54:13.462Z,3.80
2018-12-22T07:55:17.480Z,2.90
2018-12-22T07:56:21.797Z,3.12
2018-12-22T07:57:25.998Z,3.95
2018-12-22T07:58:30.059Z,3.00
2018-12-22T07:59:34.214Z,2.92
2018-12-22T08:00:38.318Z,3.50
2018-12-22T08:01:42.526Z,3.55
2018-12-22T08:02:46.603Z,3.47
2018-12-22T08:03:50.628Z,3.55
2018-12-22T08:04:54.706Z,4.58
2018-12-22T08:05:58.720Z,3.47
2018-12-22T08:07:02.817Z,4.37
2018-12-22T08:08:06.889Z,3.60
2018-12-22T08:09:11.199Z,3.47
2018-12-22T08:10:15.355Z,3.60
2018-12-22T08:11:19.510Z,3.30
2018-12-22T08:12:23.506Z,3.30
2018-12-22T08:13:27.628Z,2.77
2018-12-22T08:14:32.124Z,3.62
2018-12-22T08:15:36.226Z,3.10
2018-12-22T08:16:40.322Z,3.17
2018-12-22T08:17:44.324Z,2.75
2018-12-22T08:18:48.427Z,2.90
2018-12-22T08:19:52.734Z,4.03
2018-12-22T08:20:56.802Z,3.10
2018-12-22T08:22:00.847Z,3.25
2018-12-22T08:23:04.981Z,3.22
2018-12-22T08:24:09.263Z,3.40
2018-12-22T08:25:13.329Z,3.33
2018-12-22T08:26:17.356Z,2.42
2018-12-22T08:27:21.453Z,3.30
2018-12-22T08:28:25.465Z,2.83
2018-12-22T08:29:29.647Z,2.33
2018-12-22T08:30:33.838Z,2.50
2018-12-22T08:31:37.882Z,2.60
2018-12-22T08:32:41.989Z,2.00
2018-12-22T08:33:46.068Z,2.45
2018-12-22T08:34:50.049Z,2.20
2018-12-22T08:35:54.139Z,2.50
2018-12-22T08:36:58.148Z,2.35
2018-12-22T08:38:02.186Z,2.15
2018-12-22T08:39:07.306Z,3.30
2018-12-22T08:40:12.531Z,2.58
2018-12-22T08:41:16.518Z,2.30
2018-12-22T08:42:20.662Z,2.30
2018-12-22T08:43:24.722Z,2.50
2018-12-22T08:44:28.934Z,3.22
2018-12-22T08:45:32.960Z,2.00
2018-12-22T08:46:37.074Z,2.25
2018-12-22T08:47:41.168Z,2.47
2018-12-22T08:48:45.175Z,2.37
2018-12-22T08:49:49.266Z,1.70
2018-12-22T08:50:53.225Z,1.80
2018-12-22T08:51:57.874Z,2.00
2018-12-22T08:53:01.907Z,2.30
2018-12-22T08:54:06.246Z,2.05
2018-12-22T08:55:10.375Z,2.12
2018-12-22T08:56:14.430Z,2.00
2018-12-22T08:57:18.470Z,2.10
2018-12-22T08:58:22.574Z,1.77
2018-12-22T08:59:26.644Z,2.30
2018-12-22T09:00:30.719Z,2.22
2018-12-22T09:01:34.734Z,1.80
2018-12-22T09:02:38.826Z,2.80
2018-12-22T09:03:43.054Z,1.95
2018-12-22T09:04:47.168Z,2.17
2018-12-22T09:05:51.326Z,1.45
2018-12-22T09:06:55.409Z,1.70
2018-12-22T09:07:59.449Z,2.90
2018-12-22T09:09:05.500Z,2.85
2018-12-22T09:10:10.118Z,2.25
2018-12-22T09:11:14.184Z,2.47
2018-12-22T09:12:18.198Z,2.20
2018-12-22T09:13:22.295Z,2.00
2018-12-22T09:14:26.364Z,3.10
2018-12-22T09:15:30.814Z,2.37
2018-12-22T09:16:34.975Z,2.02
2018-12-22T09:17:39.221Z,2.20
2018-12-22T09:18:43.239Z,1.80
2018-12-22T09:19:47.366Z,2.85
2018-12-22T09:20:51.370Z,2.47
2018-12-22T09:21:55.466Z,2.60
2018-12-22T09:22:59.455Z,2.33
2018-12-22T09:24:03.466Z,2.02
2018-12-22T09:25:08.618Z,2.42
2018-12-22T09:26:12.624Z,1.92
2018-12-22T09:27:16.716Z,2.20
2018-12-22T09:28:20.858Z,1.90
2018-12-22T09:29:24.892Z,2.62
2018-12-22T09:30:28.903Z,2.15
2018-12-22T09:31:33.196Z,1.80
2018-12-22T09:32:37.485Z,2.50
2018-12-22T09:33:41.485Z,1.60
2018-12-22T09:34:45.510Z,3.22
2018-12-22T09:35:49.608Z,3.08
2018-12-22T09:36:53.750Z,2.20
2018-12-22T09:37:58.099Z,2.00
2018-12-22T09:39:02.404Z,2.15
2018-12-22T09:40:11.647Z,2.50
2018-12-22T09:41:15.773Z,2.75
2018-12-22T09:42:19.795Z,2.27
2018-12-22T09:43:23.977Z,2.35
2018-12-22T09:44:28.014Z,2.40
2018-12-22T09:45:32.226Z,2.40
2018-12-22T09:46:36.407Z,2.00
2018-12-22T09:47:40.398Z,1.67
2018-12-22T09:48:44.455Z,2.33
2018-12-22T09:49:48.635Z,1.70
2018-12-22T09:50:52.919Z,1.90
2018-12-22T09:51:57.054Z,2.30
2018-12-22T09:53:01.112Z,2.90
2018-12-22T09:54:05.249Z,2.08
2018-12-22T09:55:09.402Z,2.35
2018-12-22T09:56:13.440Z,2.15
2018-12-22T09:57:17.463Z,2.40
2018-12-22T09:58:21.491Z,2.25
2018-12-22T09:59:25.503Z,2.05
2018-12-22T10:00:29.566Z,2.45
2018-12-22T10:01:33.661Z,2.47
2018-12-22T10:02:37.978Z,1.85
2018-12-22T10:03:42.218Z,2.37
2018-12-22T10:04:46.249Z,3.12
2018-12-22T10:05:50.309Z,2.20
2018-12-22T10:06:54.387Z,3.08
2018-12-22T10:07:58.419Z,1.82
2018-12-22T10:09:02.510Z,2.65
2018-12-22T10:10:11.159Z,2.50
2018-12-22T10:11:15.217Z,2.80
2018-12-22T10:12:19.326Z,2.33
2018-12-22T10:13:23.306Z,2.40
2018-12-22T10:14:27.337Z,2.08
2018-12-22T10:15:31.591Z,2.40
2018-12-22T10:16:35.626Z,2.67
2018-12-22T10:17:39.769Z,2.50
2018-12-22T10:18:43.893Z,2.22
2018-12-22T10:19:47.857Z,2.40
2018-12-22T10:20:52.024Z,2.35
2018-12-22T10:21:56.131Z,3.10
2018-12-22T10:23:00.273Z,2.90
2018-12-22T10:24:04.453Z,2.47
2018-12-22T10:25:11.147Z,2.55
2018-12-22T10:26:15.170Z,2.50
2018-12-22T10:27:19.249Z,2.10
2018-12-22T10:28:23.263Z,2.35
2018-12-22T10:29:27.320Z,2.95
2018-12-22T10:30:31.459Z,2.17
2018-12-22T10:31:35.538Z,3.35
2018-12-22T10:32:39.625Z,2.85
2018-12-22T10:33:43.767Z,2.67
2018-12-22T10:34:47.887Z,2.40
2018-12-22T10:35:51.959Z,2.90
2018-12-22T10:36:56.063Z,2.37
2018-12-22T10:38:00.136Z,2.92
2018-12-22T10:39:06.465Z,2.42
2018-12-22T10:40:10.533Z,3.52
2018-12-22T10:41:14.554Z,2.35
2018-12-22T10:42:18.730Z,2.62
2018-12-22T10:43:22.726Z,3.55
2018-12-22T10:44:26.842Z,3.08
2018-12-22T10:45:31.074Z,2.12
2018-12-22T10:46:35.106Z,2.50
2018-12-22T10:47:39.470Z,2.92
2018-12-22T10:48:43.875Z,2.67
2018-12-22T10:49:47.923Z,3.30
2018-12-22T10:50:52.020Z,2.50
2018-12-22T10:51:56.304Z,4.25
2018-12-22T10:53:00.314Z,2.85
2018-12-22T10:54:04.505Z,2.17
2018-12-22T10:55:09.663Z,4.15
2018-12-22T10:56:13.639Z,2.83
2018-12-22T10:57:17.727Z,4.35
2018-12-22T10:58:21.847Z,3.08
2018-12-22T10:59:26.023Z,3.27
2018-12-22T11:00:30.098Z,3.60
2018-12-22T11:01:34.252Z,3.05
2018-12-22T11:02:38.311Z,2.75
2018-12-22T11:03:42.415Z,3.42
2018-12-22T11:04:46.618Z,3.25
2018-12-22T11:05:50.619Z,3.35
2018-12-22T11:06:54.711Z,3.20
2018-12-22T11:07:58.735Z,2.90
2018-12-22T11:09:02.948Z,3.50
2018-12-22T11:10:10.089Z,2.60
2018-12-22T11:11:14.113Z,3.40
2018-12-22T11:12:18.130Z,3.10
2018-12-22T11:13:22.113Z,3.50
2018-12-22T11:14:26.140Z,3.22
2018-12-22T11:15:30.142Z,3.42
2018-12-22T11:16:34.422Z,2.85
2018-12-22T11:17:38.471Z,3.02
2018-12-22T11:18:42.618Z,3.42
2018-12-22T11:19:46.812Z,3.05
2018-12-22T11:20:50.836Z,3.67
2018-12-22T11:21:54.863Z,2.83
2018-12-22T11:22:58.857Z,3.22
2018-12-22T11:24:03.084Z,3.30
2018-12-22T11:25:12.855Z,3.20
2018-12-22T11:26:16.976Z,2.72
2018-12-22T11:27:21.160Z,3.25
2018-12-22T11:28:25.212Z,3.80
2018-12-22T11:29:29.266Z,3.12
2018-12-22T11:30:35.955Z,2.90
2018-12-22T11:31:40.070Z,3.00
2018-12-22T11:32:44.154Z,3.52
2018-12-22T11:33:48.275Z,2.90
2018-12-22T11:34:52.483Z,2.90
2018-12-22T11:35:56.516Z,3.20
2018-12-22T11:37:00.534Z,3.35
2018-12-22T11:38:04.576Z,4.28
2018-12-22T11:39:08.606Z,3.70
2018-12-22T11:40:12.789Z,3.72
2018-12-22T11:41:16.794Z,3.85
2018-12-22T11:42:20.835Z,4.37
2018-12-22T11:43:24.849Z,3.62
2018-12-22T11:44:28.846Z,4.20
2018-12-22T11:45:32.888Z,4.35
2018-12-22T11:46:38.413Z,5.35
2018-12-22T11:47:52.075Z,5.12
2018-12-22T11:50:01.843Z,4.53
2018-12-22T11:51:05.991Z,5.05
2018-12-22T11:52:10.118Z,4.30
2018-12-22T11:53:14.227Z,4.45
2018-12-22T11:54:18.241Z,4.70
2018-12-22T11:55:22.434Z,5.20
2018-12-22T11:56:26.594Z,4.80
2018-12-22T11:57:30.585Z,5.40
2018-12-22T11:58:34.797Z,4.58
2018-12-22T11:59:39.021Z,4.87
2018-12-22T12:00:43.247Z,5.80
2018-12-22T12:01:47.280Z,5.30
2018-12-22T12:02:51.306Z,5.65
2018-12-22T12:03:55.314Z,6.70
2018-12-22T12:04:59.450Z,5.85
2018-12-22T12:06:03.566Z,4.80
2018-12-22T12:07:07.595Z,5.25
2018-12-22T12:08:12.038Z,5.17
2018-12-22T12:09:16.144Z,5.28
2018-12-22T12:10:20.307Z,5.70
2018-12-22T12:11:24.372Z,5.40
2018-12-22T12:12:28.405Z,5.30
2018-12-22T12:13:32.446Z,5.20
2018-12-22T12:14:36.880Z,5.00
2018-12-22T12:15:53.627Z,5.30
2018-12-22T12:17:07.083Z,5.25
2018-12-22T12:18:21.938Z,5.87
2018-12-22T12:19:28.760Z,5.25
2018-12-22T12:20:32.841Z,5.62
2018-12-22T12:21:37.323Z,5.78
2018-12-22T12:22:41.940Z,5.67
2018-12-22T12:23:46.037Z,5.28
2018-12-22T12:24:50.041Z,5.40
2018-12-22T12:25:54.040Z,6.42
2018-12-22T12:26:58.063Z,4.37
2018-12-22T12:28:02.072Z,4.78
2018-12-22T12:29:06.138Z,5.15
2018-12-22T12:30:10.810Z,4.67
2018-12-22T12:31:14.866Z,4.78
2018-12-22T12:32:18.917Z,4.75
2018-12-22T12:33:23.044Z,5.03
2018-12-22T12:34:27.049Z,5.28
2018-12-22T12:35:31.123Z,5.45
2018-12-22T12:36:35.225Z,4.50
2018-12-22T12:37:39.217Z,4.60
2018-12-22T12:38:43.299Z,4.87
2018-12-22T12:39:47.274Z,4.85
2018-12-22T12:40:51.367Z,4.45
2018-12-22T12:41:55.366Z,5.20
2018-12-22T12:42:59.435Z,4.33
2018-12-22T12:44:03.709Z,5.20
2018-12-22T12:45:10.881Z,4.60
2018-12-22T12:46:15.208Z,4.53
2018-12-22T12:47:19.246Z,4.25
2018-12-22T12:48:24.781Z,4.28
2018-12-22T12:49:28.901Z,8.43
2018-12-22T12:50:33.516Z,4.60
2018-12-22T12:51:37.615Z,4.95
2018-12-22T12:52:41.877Z,5.65
2018-12-22T12:53:46.052Z,5.03
2018-12-22T12:54:50.157Z,4.30
2018-12-22T12:55:54.416Z,5.65
2018-12-22T12:56:59.498Z,4.65
2018-12-22T12:58:03.607Z,6.03
2018-12-22T12:59:07.613Z,6.83
2018-12-22T13:00:13.598Z,4.25
2018-12-22T13:01:17.646Z,4.65
2018-12-22T13:02:21.770Z,4.30
2018-12-22T13:03:25.942Z,4.65
2018-12-22T13:04:30.199Z,6.60
2018-12-22T13:05:34.189Z,4.53
2018-12-22T13:06:38.496Z,5.00
2018-12-22T13:07:42.866Z,4.55
2018-12-22T13:08:46.918Z,4.67
2018-12-22T13:09:50.910Z,4.65
2018-12-22T13:10:55.016Z,4.40
2018-12-22T13:12:05.035Z,4.95
2018-12-22T13:13:50.929Z,4.45
2018-12-22T13:14:54.959Z,5.05
2018-12-22T13:15:59.007Z,4.37
2018-12-22T13:17:03.171Z,5.45
2018-12-22T13:18:07.242Z,4.85
2018-12-22T13:19:11.345Z,5.65
2018-12-22T13:20:15.518Z,5.78
2018-12-22T13:21:19.730Z,5.28
2018-12-22T13:22:23.886Z,5.40
2018-12-22T13:23:27.856Z,5.05
2018-12-22T13:24:32.035Z,4.42
2018-12-22T13:25:36.138Z,4.50
2018-12-22T13:26:40.270Z,4.97
2018-12-22T13:27:44.393Z,5.00
2018-12-22T13:28:48.562Z,4.47
2018-12-22T13:29:52.586Z,4.05
2018-12-22T13:30:56.580Z,4.10
2018-12-22T13:32:09.203Z,3.98
2018-12-22T13:33:07.045Z,3.90
2018-12-22T13:34:11.122Z,3.62
2018-12-22T13:35:15.274Z,3.40
2018-12-22T13:36:20.337Z,4.10
2018-12-22T13:37:24.539Z,3.30
2018-12-22T13:38:29.136Z,3.62
2018-12-22T13:39:33.156Z,3.58
2018-12-22T13:40:37.195Z,5.37
2018-12-22T13:41:41.206Z,3.50
2018-12-22T13:42:45.264Z,4.20
2018-12-22T13:43:49.327Z,4.28
2018-12-22T13:44:53.493Z,3.87
2018-12-22T13:45:57.605Z,4.92
2018-12-22T13:47:01.634Z,5.10
2018-12-22T13:48:05.921Z,4.78
2018-12-22T13:49:10.487Z,4.62
2018-12-22T13:50:14.977Z,4.85
2018-12-22T13:51:19.415Z,5.20
2018-12-22T13:52:23.588Z,4.92
2018-12-22T13:53:27.689Z,4.75
2018-12-22T13:54:31.864Z,5.33
2018-12-22T13:55:35.865Z,4.15
2018-12-22T13:56:39.857Z,5.80
2018-12-22T13:57:44.068Z,4.83
2018-12-22T13:58:48.122Z,5.50
2018-12-22T13:59:52.202Z,5.40
2018-12-22T14:00:56.242Z,4.92
2018-12-22T14:02:02.890Z,4.95
2018-12-22T14:04:07.638Z,5.10
2018-12-22T14:05:15.265Z,5.60
2018-12-22T14:06:24.465Z,5.17
2018-12-22T14:07:28.564Z,6.03
2018-12-22T14:08:32.752Z,6.10
2018-12-22T14:09:36.994Z,4.97
2018-12-22T14:10:41.120Z,6.05
2018-12-22T14:11:45.255Z,6.20
2018-12-22T14:12:49.362Z,6.22
2018-12-22T14:13:55.137Z,6.20
2018-12-22T14:14:59.168Z,6.55
2018-12-22T14:16:12.283Z,5.55
2018-12-22T14:17:24.777Z,6.80
2018-12-22T14:18:37.774Z,7.30